Time;durP1;ratioP1;P1;durP2;ratioP2;P2;SDS_P1;SDS_P2;PMS_P1;PMS_P2;Temp;Humidity;BMP_temperature;BMP_pressure;BME280_temperature;BME280_humidity;BME280_pressure;Samples;Min_cycle;Max_cycle;Signal;HPM_P1;HPM_P2
2022/03/14 00:00:08;;;;;;;4.82;3.70;;;;;;;;;;4929611;29;20540;-74
2022/03/14 00:02:34;;;;;;;4.82;3.17;;;;;;;;;;4920744;29;20492;-74
2022/03/14 00:05:03;;;;;;;4.28;2.97;;;;;;;;;;4923959;29;20040;-75
2022/03/14 00:07:31;;;;;;;5.53;3.47;;;;;;;;;;4906362;29;20575;-75
2022/03/14 00:09:58;;;;;;;4.68;2.95;;;;;;;;;;4907874;29;20031;-75
2022/03/14 00:12:25;;;;;;;3.35;2.85;;;;;;;;;;4916906;29;20548;-75
2022/03/14 00:14:55;;;;;;;3.63;2.95;;;;;;;;;;4916200;29;20036;-74
2022/03/14 00:17:23;;;;;;;3.42;2.65;;;;;;;;;;4923821;29;20796;-74
2022/03/14 00:19:50;;;;;;;2.88;2.58;;;;;;;;;;4914818;29;20028;-75
2022/03/14 00:22:19;;;;;;;4.00;3.00;;;;;;;;;;4923590;29;20229;-76
2022/03/14 00:24:45;;;;;;;3.22;2.78;;;;;;;;;;4919843;29;20094;-74
2022/03/14 00:27:12;;;;;;;4.05;2.72;;;;;;;;;;4921084;29;20047;-74
2022/03/14 00:29:38;;;;;;;4.63;2.50;;;;;;;;;;4919772;29;20020;-75
2022/03/14 00:32:04;;;;;;;3.25;2.50;;;;;;;;;;4922146;29;20418;-75
2022/03/14 00:34:30;;;;;;;5.03;2.90;;;;;;;;;;4921589;29;20028;-74
2022/03/14 00:36:56;;;;;;;3.80;2.75;;;;;;;;;;4915236;29;20028;-74
2022/03/14 00:39:23;;;;;;;2.70;2.47;;;;;;;;;;4921220;29;20453;-75
2022/03/14 00:41:49;;;;;;;3.97;2.70;;;;;;;;;;4920581;29;20477;-74
2022/03/14 00:44:16;;;;;;;4.07;2.90;;;;;;;;;;4918556;29;20024;-77
2022/03/14 00:46:43;;;;;;;4.00;3.08;;;;;;;;;;4919653;29;20115;-73
2022/03/14 00:49:09;;;;;;;3.85;2.88;;;;;;;;;;4928461;29;20059;-74
2022/03/14 00:51:35;;;;;;;3.55;3.03;;;;;;;;;;4917549;29;20028;-74
2022/03/14 00:54:02;;;;;;;4.05;3.65;;;;;;;;;;4911756;29;20024;-74
2022/03/14 00:56:28;;;;;;;6.40;4.10;;;;;;;;;;4911862;29;20032;-75
2022/03/14 00:58:55;;;;;;;5.28;3.50;;;;;;;;;;4913760;29;20393;-75
2022/03/14 01:01:21;;;;;;;5.63;4.15;;;;;;;;;;4921614;29;20035;-75
2022/03/14 01:03:48;;;;;;;6.10;4.60;;;;;;;;;;4924712;29;20091;-74
2022/03/14 01:06:14;;;;;;;6.00;4.50;;;;;;;;;;4912933;29;20035;-75
2022/03/14 01:08:40;;;;;;;6.57;5.00;;;;;;;;;;4925246;29;20038;-74
2022/03/14 01:11:06;;;;;;;6.25;4.88;;;;;;;;;;4920058;29;20044;-74
2022/03/14 01:13:32;;;;;;;6.35;4.43;;;;;;;;;;4922154;29;20034;-73
2022/03/14 01:15:59;;;;;;;5.10;4.43;;;;;;;;;;4934475;29;20036;-74
2022/03/14 01:18:25;;;;;;;6.47;4.70;;;;;;;;;;4933342;29;20546;-76
2022/03/14 01:20:52;;;;;;;6.05;4.57;;;;;;;;;;4935166;29;20046;-74
2022/03/14 01:23:18;;;;;;;6.55;4.70;;;;;;;;;;4907698;29;20055;-72
2022/03/14 01:25:45;;;;;;;5.80;4.72;;;;;;;;;;4915465;29;20060;-73
2022/03/14 01:28:12;;;;;;;6.78;4.82;;;;;;;;;;4916233;29;20059;-73
2022/03/14 01:30:43;;;;;;;7.25;5.40;;;;;;;;;;4924818;29;20064;-74
2022/03/14 01:33:09;;;;;;;6.03;4.85;;;;;;;;;;4917366;29;20034;-74
2022/03/14 01:35:36;;;;;;;8.70;5.20;;;;;;;;;;4926818;29;20528;-74
2022/03/14 01:38:03;;;;;;;6.18;5.10;;;;;;;;;;4911620;29;20035;-74
2022/03/14 01:40:29;;;;;;;7.72;5.15;;;;;;;;;;4917940;29;20393;-74
2022/03/14 01:42:55;;;;;;;6.88;5.32;;;;;;;;;;4923307;29;20111;-74
2022/03/14 01:45:22;;;;;;;8.38;6.07;;;;;;;;;;4924437;29;20504;-74
2022/03/14 01:47:49;;;;;;;9.63;6.18;;;;;;;;;;4917907;29;20028;-74
2022/03/14 01:50:15;;;;;;;10.73;6.13;;;;;;;;;;4912688;29;20036;-75
2022/03/14 01:52:42;;;;;;;8.13;6.45;;;;;;;;;;4922545;29;20032;-75
2022/03/14 01:55:08;;;;;;;9.65;6.43;;;;;;;;;;4926018;29;20036;-75
2022/03/14 01:57:35;;;;;;;11.40;7.15;;;;;;;;;;4918295;29;20543;-74
2022/03/14 02:00:01;;;;;;;9.23;6.70;;;;;;;;;;4938261;29;20032;-75
2022/03/14 02:02:27;;;;;;;10.70;7.18;;;;;;;;;;4929297;29;20477;-75
2022/03/14 02:04:54;;;;;;;9.57;6.75;;;;;;;;;;4919753;29;20032;-75
2022/03/14 02:07:23;;;;;;;10.73;7.07;;;;;;;;;;4906851;29;20043;-74
2022/03/14 02:09:49;;;;;;;11.25;7.00;;;;;;;;;;4923692;29;20032;-75
2022/03/14 02:12:16;;;;;;;10.30;7.70;;;;;;;;;;4937990;29;20382;-74
2022/03/14 02:14:42;;;;;;;9.95;7.10;;;;;;;;;;4934380;29;20413;-75
2022/03/14 02:17:09;;;;;;;11.65;8.02;;;;;;;;;;4919731;29;20422;-74
2022/03/14 02:19:36;;;;;;;10.82;7.20;;;;;;;;;;4933322;29;20024;-73
2022/03/14 02:22:05;;;;;;;10.82;7.35;;;;;;;;;;4936743;29;20044;-73
2022/03/14 02:24:31;;;;;;;14.93;8.43;;;;;;;;;;4920146;29;20059;-75
2022/03/14 02:26:57;;;;;;;14.65;7.90;;;;;;;;;;4919020;29;20031;-75
2022/03/14 02:29:24;;;;;;;9.90;7.60;;;;;;;;;;4921294;29;20107;-75
2022/03/14 02:31:51;;;;;;;11.98;8.52;;;;;;;;;;4919763;29;20028;-75
2022/03/14 02:34:17;;;;;;;12.88;8.38;;;;;;;;;;4932277;29;20035;-74
2022/03/14 02:36:43;;;;;;;11.77;8.25;;;;;;;;;;4934071;29;20027;-74
2022/03/14 02:39:09;;;;;;;14.80;8.70;;;;;;;;;;4925598;29;20079;-74
2022/03/14 02:41:36;;;;;;;16.77;8.80;;;;;;;;;;4918774;29;20031;-74
2022/03/14 02:44:06;;;;;;;11.13;7.88;;;;;;;;;;4922586;29;20040;-75
2022/03/14 02:46:37;;;;;;;13.65;8.90;;;;;;;;;;4904423;29;20103;-73
2022/03/14 02:49:04;;;;;;;14.25;8.95;;;;;;;;;;4925290;29;20031;-74
2022/03/14 02:51:30;;;;;;;12.93;8.50;;;;;;;;;;4916606;29;20501;-75
2022/03/14 02:53:57;;;;;;;12.20;8.90;;;;;;;;;;4920825;29;20153;-74
2022/03/14 02:56:23;;;;;;;13.93;8.65;;;;;;;;;;4920128;29;20421;-74
2022/03/14 02:58:53;;;;;;;14.68;9.52;;;;;;;;;;4928218;29;20067;-75
2022/03/14 03:01:20;;;;;;;14.77;9.43;;;;;;;;;;4918114;29;20024;-75
2022/03/14 03:03:47;;;;;;;14.25;9.05;;;;;;;;;;4927770;29;20032;-74
2022/03/14 03:06:13;;;;;;;12.50;9.02;;;;;;;;;;4918257;29;20043;-75
2022/03/14 03:08:44;;;;;;;19.80;8.77;;;;;;;;;;4932482;29;20070;-76
2022/03/14 03:11:13;;;;;;;15.32;10.02;;;;;;;;;;4918856;29;20024;-76
2022/03/14 03:13:42;;;;;;;15.02;9.13;;;;;;;;;;4936612;29;20031;-75
2022/03/14 03:16:09;;;;;;;17.13;9.68;;;;;;;;;;4923555;29;20028;-76
2022/03/14 03:18:36;;;;;;;14.80;9.90;;;;;;;;;;4919528;29;20508;-76
2022/03/14 03:21:02;;;;;;;14.80;8.75;;;;;;;;;;4936171;29;20031;-75
2022/03/14 03:23:28;;;;;;;12.57;9.25;;;;;;;;;;4936645;29;20036;-75
2022/03/14 03:25:55;;;;;;;12.23;8.82;;;;;;;;;;4913437;29;20048;-75
2022/03/14 03:28:21;;;;;;;17.33;9.60;;;;;;;;;;4936501;29;20477;-75
2022/03/14 03:30:47;;;;;;;18.08;8.85;;;;;;;;;;4935358;29;20035;-75
2022/03/14 03:33:13;;;;;;;15.75;9.30;;;;;;;;;;4937281;29;20043;-75
2022/03/14 03:35:39;;;;;;;15.73;9.10;;;;;;;;;;4912653;29;20034;-76
2022/03/14 03:38:05;;;;;;;13.73;8.38;;;;;;;;;;4936449;29;20043;-75
2022/03/14 03:40:31;;;;;;;15.23;9.68;;;;;;;;;;4924948;29;20028;-75
2022/03/14 03:42:58;;;;;;;17.17;9.40;;;;;;;;;;4922952;29;20036;-75
2022/03/14 03:45:24;;;;;;;15.70;8.60;;;;;;;;;;4918190;29;20048;-75
2022/03/14 03:47:50;;;;;;;16.70;8.93;;;;;;;;;;4917389;29;20031;-75
2022/03/14 03:50:17;;;;;;;15.32;8.50;;;;;;;;;;4923375;29;20115;-74
2022/03/14 03:52:43;;;;;;;14.63;8.07;;;;;;;;;;4923692;29;20024;-74
2022/03/14 03:55:09;;;;;;;14.02;8.90;;;;;;;;;;4918674;29;20032;-74
2022/03/14 03:57:35;;;;;;;16.50;8.02;;;;;;;;;;4926388;29;20385;-74
2022/03/14 04:00:07;;;;;;;13.32;8.00;;;;;;;;;;4936699;29;20079;-74
2022/03/14 04:02:38;;;;;;;14.68;7.72;;;;;;;;;;4922974;29;20083;-74
2022/03/14 04:05:05;;;;;;;11.57;7.72;;;;;;;;;;4900483;29;20074;-74
2022/03/14 04:07:32;;;;;;;13.00;7.65;;;;;;;;;;4924119;29;20164;-74
2022/03/14 04:09:59;;;;;;;14.55;7.78;;;;;;;;;;4917273;29;20393;-74
2022/03/14 04:12:26;;;;;;;15.63;8.50;;;;;;;;;;4928089;29;20393;-74
2022/03/14 04:14:56;;;;;;;10.73;7.10;;;;;;;;;;4933487;29;20031;-74
2022/03/14 04:17:25;;;;;;;17.63;7.60;;;;;;;;;;4924880;29;20477;-74
2022/03/14 04:19:52;;;;;;;10.63;7.40;;;;;;;;;;4935470;29;20069;-74
2022/03/14 04:22:19;;;;;;;11.38;7.20;;;;;;;;;;4936222;29;20110;-74
2022/03/14 04:24:45;;;;;;;9.88;6.47;;;;;;;;;;4935012;29;20035;-74
2022/03/14 04:27:11;;;;;;;11.43;6.90;;;;;;;;;;4933096;29;20092;-74
2022/03/14 04:29:37;;;;;;;12.70;6.30;;;;;;;;;;4936120;29;20111;-74
2022/03/14 04:32:03;;;;;;;17.42;7.32;;;;;;;;;;4902152;29;20043;-74
2022/03/14 04:34:30;;;;;;;13.98;7.28;;;;;;;;;;4916606;29;20028;-73
2022/03/14 04:36:58;;;;;;;11.10;6.07;;;;;;;;;;4920298;29;20039;-73
2022/03/14 04:39:24;;;;;;;12.02;6.50;;;;;;;;;;4899387;29;20157;-73
2022/03/14 04:41:51;;;;;;;12.88;6.78;;;;;;;;;;4932283;29;20035;-74
2022/03/14 04:44:17;;;;;;;13.73;7.07;;;;;;;;;;4935545;29;20034;-73
2022/03/14 04:46:43;;;;;;;9.88;7.22;;;;;;;;;;4924475;29;20489;-74
2022/03/14 04:49:10;;;;;;;11.07;6.57;;;;;;;;;;4916287;29;20032;-74
2022/03/14 04:51:37;;;;;;;12.15;6.72;;;;;;;;;;4900814;29;20044;-73
2022/03/14 04:54:03;;;;;;;11.10;6.60;;;;;;;;;;4916789;29;20035;-74
2022/03/14 04:56:29;;;;;;;10.45;6.32;;;;;;;;;;4918571;29;20079;-74
2022/03/14 04:58:55;;;;;;;12.93;6.68;;;;;;;;;;4916442;29;20371;-75
2022/03/14 05:01:23;;;;;;;14.32;6.63;;;;;;;;;;4926539;29;20035;-75
2022/03/14 05:03:49;;;;;;;11.23;7.00;;;;;;;;;;4935825;29;20019;-75
2022/03/14 05:06:16;;;;;;;9.98;6.90;;;;;;;;;;4933177;29;20117;-74
2022/03/14 05:08:45;;;;;;;11.93;5.97;;;;;;;;;;4935580;29;20095;-74
2022/03/14 05:11:11;;;;;;;11.23;6.53;;;;;;;;;;4924321;29;20722;-74
2022/03/14 05:13:38;;;;;;;9.00;5.88;;;;;;;;;;4934307;29;20098;-74
2022/03/14 05:16:04;;;;;;;10.88;6.90;;;;;;;;;;4921443;29;20028;-74
2022/03/14 05:18:30;;;;;;;14.68;6.28;;;;;;;;;;4911816;29;20035;-73
2022/03/14 05:20:56;;;;;;;11.45;6.70;;;;;;;;;;4924461;29;20020;-75
2022/03/14 05:23:23;;;;;;;12.45;7.47;;;;;;;;;;4927503;29;20511;-74
2022/03/14 05:25:49;;;;;;;10.30;6.95;;;;;;;;;;4926431;29;20493;-73
2022/03/14 05:28:15;;;;;;;15.05;6.45;;;;;;;;;;4922108;29;20107;-72
2022/03/14 05:30:41;;;;;;;11.48;6.65;;;;;;;;;;4918490;29;20040;-73
2022/03/14 05:33:07;;;;;;;12.05;6.68;;;;;;;;;;4928514;29;20179;-74
2022/03/14 05:35:33;;;;;;;15.90;7.97;;;;;;;;;;4919377;29;20056;-74
2022/03/14 05:38:00;;;;;;;12.38;6.57;;;;;;;;;;4920889;29;20555;-73
2022/03/14 05:40:26;;;;;;;13.95;6.93;;;;;;;;;;4939309;29;20102;-74
2022/03/14 05:42:53;;;;;;;14.98;7.20;;;;;;;;;;4939322;29;20455;-73
2022/03/14 05:45:21;;;;;;;11.30;7.20;;;;;;;;;;4920670;29;20047;-74
2022/03/14 05:47:47;;;;;;;14.98;7.18;;;;;;;;;;4920894;29;20032;-73
2022/03/14 05:50:14;;;;;;;16.30;7.38;;;;;;;;;;4938504;29;20032;-73
2022/03/14 05:52:41;;;;;;;12.07;7.78;;;;;;;;;;4938300;29;20051;-73
2022/03/14 05:55:07;;;;;;;16.55;7.65;;;;;;;;;;4937379;29;20032;-73
2022/03/14 05:57:34;;;;;;;11.55;7.15;;;;;;;;;;4929859;29;20051;-74
2022/03/14 06:00:00;;;;;;;14.82;7.80;;;;;;;;;;4929407;29;20020;-74
2022/03/14 06:02:26;;;;;;;27.08;8.32;;;;;;;;;;4938442;29;20027;-73
2022/03/14 06:04:53;;;;;;;15.65;8.70;;;;;;;;;;4937714;29;20038;-74
2022/03/14 06:07:21;;;;;;;12.93;8.13;;;;;;;;;;4925667;29;20035;-73
2022/03/14 06:09:47;;;;;;;12.68;7.65;;;;;;;;;;4932873;29;20160;-73
2022/03/14 06:12:23;;;;;;;14.57;7.60;;;;;;;;;;4938514;29;20090;-74
2022/03/14 06:14:51;;;;;;;13.82;7.60;;;;;;;;;;4925129;29;20118;-75
2022/03/14 06:17:17;;;;;;;14.18;7.53;;;;;;;;;;4930997;29;20043;-74
2022/03/14 06:19:43;;;;;;;14.52;7.65;;;;;;;;;;4925174;29;20382;-74
2022/03/14 06:22:09;;;;;;;13.82;7.90;;;;;;;;;;4918793;29;20492;-74
2022/03/14 06:24:35;;;;;;;14.55;8.70;;;;;;;;;;4930470;29;20035;-74
2022/03/14 06:27:02;;;;;;;14.02;7.78;;;;;;;;;;4929317;29;20040;-73
2022/03/14 06:29:28;;;;;;;14.20;7.30;;;;;;;;;;4929475;29;20036;-73
2022/03/14 06:31:54;;;;;;;11.98;7.35;;;;;;;;;;4920947;29;20480;-74
2022/03/14 06:34:21;;;;;;;14.10;7.70;;;;;;;;;;4930739;29;20464;-74
2022/03/14 06:36:47;;;;;;;15.65;8.90;;;;;;;;;;4918818;29;20042;-74
2022/03/14 06:39:13;;;;;;;13.13;7.50;;;;;;;;;;4930357;29;20063;-73
2022/03/14 06:41:40;;;;;;;15.65;7.55;;;;;;;;;;4927517;29;20031;-73
2022/03/14 06:44:06;;;;;;;14.65;7.00;;;;;;;;;;4919140;29;20470;-74
2022/03/14 06:46:33;;;;;;;12.38;6.80;;;;;;;;;;4919008;29;20056;-75
2022/03/14 06:48:59;;;;;;;15.52;7.55;;;;;;;;;;4932597;29;20110;-74
2022/03/14 06:51:26;;;;;;;14.82;7.63;;;;;;;;;;4901830;29;20032;-74
2022/03/14 06:53:52;;;;;;;15.80;7.15;;;;;;;;;;4902474;29;20032;-73
2022/03/14 06:56:19;;;;;;;12.68;6.63;;;;;;;;;;4920049;29;20036;-73
2022/03/14 06:58:45;;;;;;;14.13;7.47;;;;;;;;;;4931923;29;20493;-74
2022/03/14 07:01:12;;;;;;;11.25;7.03;;;;;;;;;;4937918;29;20034;-75
2022/03/14 07:03:38;;;;;;;16.73;7.13;;;;;;;;;;4929289;29;20524;-74
2022/03/14 07:06:04;;;;;;;14.10;6.63;;;;;;;;;;4918996;29;20056;-73
2022/03/14 07:08:30;;;;;;;11.45;6.80;;;;;;;;;;4918973;29;20071;-74
2022/03/14 07:10:56;;;;;;;16.40;6.90;;;;;;;;;;4918435;29;20497;-73
2022/03/14 07:13:22;;;;;;;12.98;7.45;;;;;;;;;;4908438;29;20043;-74
2022/03/14 07:15:48;;;;;;;12.98;7.35;;;;;;;;;;4917985;29;20111;-74
2022/03/14 07:18:15;;;;;;;13.45;7.05;;;;;;;;;;4926228;29;20039;-73
2022/03/14 07:20:41;;;;;;;12.18;7.55;;;;;;;;;;4921338;29;20039;-73
2022/03/14 07:23:07;;;;;;;17.33;7.60;;;;;;;;;;4914416;29;20034;-73
2022/03/14 07:25:37;;;;;;;15.95;8.00;;;;;;;;;;4904668;29;20130;-73
2022/03/14 07:28:05;;;;;;;13.15;8.00;;;;;;;;;;4925650;29;20051;-74
2022/03/14 07:30:31;;;;;;;14.27;8.02;;;;;;;;;;4942434;29;20197;-73
2022/03/14 07:32:57;;;;;;;14.73;7.78;;;;;;;;;;4930543;29;20503;-73
2022/03/14 07:35:24;;;;;;;15.02;8.48;;;;;;;;;;4925595;29;20157;-73
2022/03/14 07:37:50;;;;;;;13.93;7.85;;;;;;;;;;4915489;29;20031;-73
2022/03/14 07:40:17;;;;;;;15.70;8.65;;;;;;;;;;4917245;29;20028;-73
2022/03/14 07:42:48;;;;;;;13.95;8.23;;;;;;;;;;4922197;29;20027;-72
2022/03/14 07:45:16;;;;;;;14.43;8.38;;;;;;;;;;4922426;29;20044;-72
2022/03/14 07:47:45;;;;;;;20.40;9.02;;;;;;;;;;4926909;29;20075;-75
2022/03/14 07:50:14;;;;;;;16.45;8.60;;;;;;;;;;4921665;29;20505;-79
2022/03/14 07:52:40;;;;;;;10.73;7.72;;;;;;;;;;4925022;29;20048;-76
2022/03/14 07:55:07;;;;;;;16.10;8.48;;;;;;;;;;4921274;29;20083;-77
2022/03/14 07:57:34;;;;;;;22.13;9.15;;;;;;;;;;4923178;29;20051;-77
2022/03/14 08:00:00;;;;;;;24.42;8.98;;;;;;;;;;4927606;29;20054;-82
2022/03/14 08:02:26;;;;;;;22.40;8.30;;;;;;;;;;4928860;29;20032;-76
2022/03/14 08:04:52;;;;;;;14.18;8.32;;;;;;;;;;4916651;29;20103;-75
2022/03/14 08:07:20;;;;;;;20.27;8.65;;;;;;;;;;4922312;29;20489;-85
2022/03/14 08:09:50;;;;;;;15.65;8.98;;;;;;;;;;4925476;29;20027;-84
2022/03/14 08:12:20;;;;;;;18.70;7.90;;;;;;;;;;4922471;29;20054;-86
2022/03/14 08:14:47;;;;;;;18.67;8.73;;;;;;;;;;4934150;29;20044;-86
2022/03/14 08:17:14;;;;;;;16.33;7.20;;;;;;;;;;4920936;29;20047;-77
2022/03/14 08:19:41;;;;;;;22.38;7.80;;;;;;;;;;4933054;29;20039;-87
2022/03/14 08:22:08;;;;;;;15.70;6.53;;;;;;;;;;4931538;29;20031;-83
2022/03/14 08:24:35;;;;;;;16.08;7.25;;;;;;;;;;4916989;29;20020;-80
2022/03/14 08:27:01;;;;;;;19.88;6.90;;;;;;;;;;4903092;29;20032;-75
2022/03/14 08:29:28;;;;;;;16.90;7.13;;;;;;;;;;4924504;29;20091;-75
2022/03/14 08:31:54;;;;;;;14.02;6.10;;;;;;;;;;4905812;29;20028;-74
2022/03/14 08:34:21;;;;;;;13.35;5.15;;;;;;;;;;4932258;29;20473;-74
2022/03/14 08:36:47;;;;;;;14.13;5.25;;;;;;;;;;4923385;29;20339;-73
2022/03/14 08:39:13;;;;;;;19.40;5.55;;;;;;;;;;4921706;29;20024;-75
2022/03/14 08:41:40;;;;;;;18.10;6.05;;;;;;;;;;4926259;29;20027;-76
2022/03/14 08:44:07;;;;;;;12.38;5.25;;;;;;;;;;4935734;29;20044;-75
2022/03/14 08:46:34;;;;;;;14.30;6.10;;;;;;;;;;4925468;29;20040;-76
2022/03/14 08:49:01;;;;;;;14.10;5.63;;;;;;;;;;4920878;29;20028;-76
2022/03/14 08:51:27;;;;;;;19.85;5.57;;;;;;;;;;4917861;29;20047;-76
2022/03/14 08:53:54;;;;;;;13.57;5.10;;;;;;;;;;4929223;29;20032;-76
2022/03/14 08:56:20;;;;;;;20.05;5.75;;;;;;;;;;4916923;29;20392;-75
2022/03/14 08:58:46;;;;;;;17.20;5.15;;;;;;;;;;4920531;29;20030;-75
2022/03/14 09:01:12;;;;;;;14.55;5.93;;;;;;;;;;4916748;29;20035;-75
2022/03/14 09:03:38;;;;;;;16.65;5.07;;;;;;;;;;4926531;29;20508;-73
2022/03/14 09:06:05;;;;;;;13.85;4.90;;;;;;;;;;4914052;29;20036;-75
2022/03/14 09:08:32;;;;;;;16.00;5.55;;;;;;;;;;4917583;29;20059;-74
2022/03/14 09:11:00;;;;;;;18.55;5.53;;;;;;;;;;4928008;29;20066;-74
2022/03/14 09:13:26;;;;;;;14.18;5.20;;;;;;;;;;4923158;29;20032;-77
2022/03/14 09:15:53;;;;;;;12.45;4.82;;;;;;;;;;4930023;29;20508;-74
2022/03/14 09:18:20;;;;;;;20.42;6.93;;;;;;;;;;4899621;29;20035;-74
2022/03/14 09:20:49;;;;;;;12.85;5.18;;;;;;;;;;4915671;29;20024;-75
2022/03/14 09:23:20;;;;;;;15.52;5.03;;;;;;;;;;4915245;29;20051;-75
2022/03/14 09:25:47;;;;;;;16.60;5.20;;;;;;;;;;4918206;29;20603;-74
2022/03/14 09:28:13;;;;;;;14.90;4.97;;;;;;;;;;4935569;29;20063;-75
2022/03/14 09:30:40;;;;;;;13.70;5.20;;;;;;;;;;4933331;29;20102;-75
2022/03/14 09:33:06;;;;;;;13.70;4.90;;;;;;;;;;4916714;29;20039;-75
2022/03/14 09:35:34;;;;;;;14.07;5.05;;;;;;;;;;4916926;29;20036;-75
2022/03/14 09:38:00;;;;;;;10.63;4.55;;;;;;;;;;4918212;29;20031;-74
2022/03/14 09:40:30;;;;;;;13.85;4.72;;;;;;;;;;4934052;29;20032;-74
2022/03/14 09:42:59;;;;;;;10.75;3.63;;;;;;;;;;4933164;29;20066;-74
2022/03/14 09:45:25;;;;;;;22.63;4.97;;;;;;;;;;4930515;29;20103;-75
2022/03/14 09:47:58;;;;;;;10.80;4.40;;;;;;;;;;4932601;29;20134;-76
2022/03/14 09:50:27;;;;;;;15.88;4.18;;;;;;;;;;4935511;29;20034;-74
2022/03/14 09:52:55;;;;;;;13.27;4.60;;;;;;;;;;4921799;29;20028;-76
2022/03/14 09:55:21;;;;;;;13.32;4.20;;;;;;;;;;4916466;29;20048;-76
2022/03/14 09:57:48;;;;;;;14.57;4.60;;;;;;;;;;4916688;29;20063;-77
2022/03/14 10:00:14;;;;;;;16.58;3.83;;;;;;;;;;4916402;29;20028;-77
2022/03/14 10:02:41;;;;;;;16.55;3.67;;;;;;;;;;4929533;29;20090;-80
2022/03/14 10:05:08;;;;;;;10.98;3.67;;;;;;;;;;4935231;29;20490;-75
2022/03/14 10:07:38;;;;;;;14.50;3.78;;;;;;;;;;4899736;29;20024;-75
2022/03/14 10:10:04;;;;;;;12.18;3.95;;;;;;;;;;4916225;29;20032;-75
2022/03/14 10:12:32;;;;;;;11.65;4.18;;;;;;;;;;4933687;29;20477;-76
2022/03/14 10:14:58;;;;;;;13.43;3.83;;;;;;;;;;4921786;29;20024;-75
2022/03/14 10:17:26;;;;;;;11.85;3.47;;;;;;;;;;4925816;29;20038;-75
2022/03/14 10:19:56;;;;;;;12.43;4.25;;;;;;;;;;4937908;29;20016;-75
2022/03/14 10:22:23;;;;;;;12.75;3.58;;;;;;;;;;4923940;29;20130;-76
2022/03/14 10:24:53;;;;;;;21.92;4.20;;;;;;;;;;4938489;29;20032;-75
2022/03/14 10:27:21;;;;;;;11.98;4.90;;;;;;;;;;4936251;29;20555;-76
2022/03/14 10:29:50;;;;;;;12.10;3.20;;;;;;;;;;4938572;29;20477;-75
2022/03/14 10:32:29;;;;;;;9.48;3.53;;;;;;;;;;4933643;29;20043;-75
2022/03/14 10:34:58;;;;;;;12.13;3.45;;;;;;;;;;4917874;29;20035;-77
2022/03/14 10:37:34;;;;;;;15.80;3.78;;;;;;;;;;4904677;29;20046;-76
2022/03/14 10:40:05;;;;;;;9.38;3.58;;;;;;;;;;4931601;29;20062;-75
2022/03/14 10:42:38;;;;;;;9.45;3.05;;;;;;;;;;4930486;29;20048;-75
2022/03/14 10:45:04;;;;;;;;;;;;;;;;;;4928488;29;20039;-74
2022/03/14 10:47:30;;;;;;;11.68;3.50;;;;;;;;;;4928903;29;19914;-74
2022/03/14 10:49:56;;;;;;;13.10;3.40;;;;;;;;;;4931184;29;20028;-75
2022/03/14 10:52:22;;;;;;;11.60;3.53;;;;;;;;;;4931744;29;20043;-74
2022/03/14 10:54:49;;;;;;;11.13;3.45;;;;;;;;;;4933697;29;20504;-77
2022/03/14 10:57:19;;;;;;;11.60;3.75;;;;;;;;;;4918430;29;20028;-76
2022/03/14 10:59:50;;;;;;;17.50;3.40;;;;;;;;;;4927481;29;20374;-74
2022/03/14 11:02:21;;;;;;;9.38;3.33;;;;;;;;;;4922057;29;20040;-76
2022/03/14 11:04:56;;;;;;;11.88;4.10;;;;;;;;;;4931080;29;20035;-77
2022/03/14 11:07:26;;;;;;;11.55;4.00;;;;;;;;;;4928438;29;20035;-77
2022/03/14 11:09:54;;;;;;;12.80;3.15;;;;;;;;;;4934728;29;20493;-78
2022/03/14 11:12:24;;;;;;;8.32;3.42;;;;;;;;;;4927533;29;20027;-75
2022/03/14 11:15:12;;;;;;;14.10;3.88;;;;;;;;;;4917443;29;20070;-76
2022/03/14 11:17:38;;;;;;;14.65;3.63;;;;;;;;;;4931632;29;20063;-75
2022/03/14 11:20:05;;;;;;;13.55;4.05;;;;;;;;;;4923430;29;20102;-74
2022/03/14 11:22:32;;;;;;;9.95;3.60;;;;;;;;;;4929536;29;20035;-75
2022/03/14 11:24:59;;;;;;;12.90;3.35;;;;;;;;;;4929211;29;20075;-75
2022/03/14 11:27:30;;;;;;;11.52;3.95;;;;;;;;;;4921740;29;20042;-78
2022/03/14 11:30:02;;;;;;;13.00;2.80;;;;;;;;;;4910004;29;20024;-75
2022/03/14 11:32:28;;;;;;;18.70;3.10;;;;;;;;;;4926247;29;20433;-77
2022/03/14 11:34:55;;;;;;;13.52;3.60;;;;;;;;;;4923313;29;20028;-75
2022/03/14 11:37:22;;;;;;;13.10;3.70;;;;;;;;;;4932789;29;20154;-75
2022/03/14 11:39:48;;;;;;;10.18;3.40;;;;;;;;;;4927708;29;20127;-76
2022/03/14 11:42:18;;;;;;;9.30;2.70;;;;;;;;;;4923459;29;20067;-75
2022/03/14 11:44:45;;;;;;;13.50;3.60;;;;;;;;;;4901551;29;20537;-78
2022/03/14 11:47:14;;;;;;;18.25;3.53;;;;;;;;;;4927886;29;20055;-76
2022/03/14 11:49:40;;;;;;;9.85;3.10;;;;;;;;;;4901334;29;20054;-77
2022/03/14 11:52:08;;;;;;;10.23;2.63;;;;;;;;;;4920317;29;20028;-76
2022/03/14 11:54:43;;;;;;;12.65;3.00;;;;;;;;;;4925889;29;20063;-77
2022/03/14 11:57:10;;;;;;;9.48;2.47;;;;;;;;;;4926855;29;20042;-78
2022/03/14 11:59:36;;;;;;;6.97;2.08;;;;;;;;;;4930847;29;20038;-77
2022/03/14 12:02:05;;;;;;;16.60;3.08;;;;;;;;;;4922354;29;20091;-77
2022/03/14 12:04:31;;;;;;;12.50;2.63;;;;;;;;;;4924093;29;20120;-78
2022/03/14 12:06:58;;;;;;;11.25;2.75;;;;;;;;;;4931589;29;20059;-79
2022/03/14 12:09:38;;;;;;;13.82;2.13;;;;;;;;;;4920412;29;20386;-76
2022/03/14 12:12:23;;;;;;;7.25;1.58;;;;;;;;;;4919760;29;20053;-75
2022/03/14 12:14:58;;;;;;;8.43;2.03;;;;;;;;;;4925821;29;20054;-77
2022/03/14 12:17:29;;;;;;;11.73;2.30;;;;;;;;;;4921493;29;20091;-79
2022/03/14 12:20:00;;;;;;;8.05;1.63;;;;;;;;;;4910654;29;20020;-76
2022/03/14 12:22:39;;;;;;;11.00;2.55;;;;;;;;;;4926540;29;20118;-75
2022/03/14 12:25:09;;;;;;;15.57;3.63;;;;;;;;;;4932418;29;20055;-75
2022/03/14 12:27:37;;;;;;;32.97;5.75;;;;;;;;;;4920559;29;20044;-75
2022/03/14 12:30:06;;;;;;;90.60;9.98;;;;;;;;;;4929980;29;20473;-75
2022/03/14 12:32:32;;;;;;;11.02;2.08;;;;;;;;;;4924017;29;20028;-78
2022/03/14 12:35:06;;;;;;;10.20;2.10;;;;;;;;;;4926193;29;20016;-77
2022/03/14 12:37:35;;;;;;;10.73;2.08;;;;;;;;;;4925450;29;20051;-78
2022/03/14 12:40:05;;;;;;;6.72;1.95;;;;;;;;;;4924398;29;20063;-81
2022/03/14 12:42:42;;;;;;;11.02;2.45;;;;;;;;;;4908113;29;20028;-79
2022/03/14 12:45:14;;;;;;;11.45;2.38;;;;;;;;;;4937399;29;20039;-79
2022/03/14 12:47:41;;;;;;;13.73;2.07;;;;;;;;;;4924895;29;20031;-77
2022/03/14 12:50:07;;;;;;;6.00;2.10;;;;;;;;;;4922136;29;20309;-79
2022/03/14 12:52:53;;;;;;;6.57;2.38;;;;;;;;;;4928662;29;20100;-79
2022/03/14 12:55:20;;;;;;;15.27;3.50;;;;;;;;;;4923381;29;20036;-81
2022/03/14 12:57:55;;;;;;;21.95;1.92;;;;;;;;;;4920759;29;20032;-79
2022/03/14 13:00:22;;;;;;;6.07;1.35;;;;;;;;;;4923241;29;20043;-79
2022/03/14 13:02:48;;;;;;;8.30;1.73;;;;;;;;;;4918288;29;20027;-78
2022/03/14 13:05:18;;;;;;;3.65;1.50;;;;;;;;;;4923530;29;20561;-76
2022/03/14 13:07:44;;;;;;;48.75;4.30;;;;;;;;;;4926978;29;20028;-78
2022/03/14 13:10:11;;;;;;;7.55;1.70;;;;;;;;;;4925795;29;20027;-76
2022/03/14 13:12:37;;;;;;;7.78;1.83;;;;;;;;;;4926132;29;20047;-75
2022/03/14 13:15:09;;;;;;;6.35;1.77;;;;;;;;;;4914124;29;20036;-77
2022/03/14 13:17:43;;;;;;;26.15;2.67;;;;;;;;;;4927066;29;20418;-76
2022/03/14 13:20:26;;;;;;;8.57;1.48;;;;;;;;;;4912695;29;20039;-78
2022/03/14 13:22:51;;;;;;;;;;;;;;;;;;4918034;29;20103;-77
2022/03/14 13:25:34;;;;;;;20.42;2.63;;;;;;;;;;4923550;29;20368;-76
2022/03/14 13:28:00;;;;;;;13.77;2.20;;;;;;;;;;4928029;29;20024;-77
2022/03/14 13:30:40;;;;;;;7.30;1.60;;;;;;;;;;4927604;29;20040;-75
2022/03/14 13:33:24;;;;;;;7.72;2.20;;;;;;;;;;4927277;29;20028;-76
2022/03/14 13:35:50;;;;;;;4.90;1.65;;;;;;;;;;4915444;29;20040;-76
2022/03/14 13:38:35;;;;;;;7.45;1.63;;;;;;;;;;4895755;29;20066;-77
2022/03/14 13:41:05;;;;;;;6.88;1.20;;;;;;;;;;4927058;29;20366;-76
2022/03/14 13:43:31;;;;;;;5.57;1.83;;;;;;;;;;4904545;29;20071;-77
2022/03/14 13:46:16;;;;;;;5.90;1.23;;;;;;;;;;4920760;29;20035;-76
2022/03/14 13:48:52;;;;;;;5.95;1.52;;;;;;;;;;4925829;29;20481;-79
2022/03/14 13:51:20;;;;;;;6.03;1.48;;;;;;;;;;4920709;29;20115;-79
2022/03/14 13:53:46;;;;;;;4.93;1.23;;;;;;;;;;4911536;29;20023;-76
2022/03/14 13:56:12;;;;;;;4.35;1.30;;;;;;;;;;4928224;29;20506;-76
2022/03/14 13:58:39;;;;;;;10.13;2.00;;;;;;;;;;4929811;29;20035;-75
2022/03/14 14:01:05;;;;;;;8.13;1.75;;;;;;;;;;4921588;29;20031;-77
2022/03/14 14:03:32;;;;;;;8.23;1.50;;;;;;;;;;4928686;29;20028;-74
2022/03/14 14:06:17;;;;;;;9.43;1.58;;;;;;;;;;4931237;29;20059;-76
2022/03/14 14:08:43;;;;;;;7.15;1.63;;;;;;;;;;4921109;29;20557;-81
2022/03/14 14:11:10;;;;;;;11.60;1.63;;;;;;;;;;4920230;29;20036;-80
2022/03/14 14:13:52;;;;;;;7.72;1.42;;;;;;;;;;4930939;29;20055;-80
2022/03/14 14:16:19;;;;;;;5.88;1.30;;;;;;;;;;4925426;29;20036;-80
2022/03/14 14:18:45;;;;;;;9.95;2.20;;;;;;;;;;4925423;29;20039;-78
2022/03/14 14:21:18;;;;;;;5.60;1.50;;;;;;;;;;4916677;29;20095;-77
2022/03/14 14:23:44;;;;;;;7.85;1.73;;;;;;;;;;4928664;29;20075;-78
2022/03/14 14:26:10;;;;;;;8.43;1.83;;;;;;;;;;4923099;29;20044;-80
2022/03/14 14:28:37;;;;;;;4.47;1.17;;;;;;;;;;4929857;29;20032;-79
2022/03/14 14:31:04;;;;;;;4.10;1.40;;;;;;;;;;4919765;29;20028;-78
2022/03/14 14:33:35;;;;;;;4.15;1.50;;;;;;;;;;4928623;29;20065;-80
2022/03/14 14:36:02;;;;;;;6.43;1.30;;;;;;;;;;4921994;29;20031;-81